sensor_id;sensor_type;location;lat;lon;timestamp;pressure;altitude;pressure_sealevel;temperature;humidity
4767;BME280;2397;53.576;9.746;2022-12-18T00:00:47;102913.94;;;-5.40;100.00
4767;BME280;2397;53.576;9.746;2022-12-18T00:03:14;102910.72;;;-5.39;100.00
4767;BME280;2397;53.576;9.746;2022-12-18T00:05:49;102901.28;;;-5.33;100.00
4767;BME280;2397;53.576;9.746;2022-12-18T00:08:16;102898.06;;;-5.32;100.00
4767;BME280;2397;53.576;9.746;2022-12-18T00:10:43;102898.06;;;-5.32;100.00
4767;BME280;2397;53.576;9.746;2022-12-18T00:13:10;102906.50;;;-5.32;100.00
4767;BME280;2397;53.576;9.746;2022-12-18T00:15:38;102902.94;;;-5.34;100.00
4767;BME280;2397;53.576;9.746;2022-12-18T00:18:05;102920.59;;;-5.34;100.00
4767;BME280;2397;53.576;9.746;2022-12-18T00:20:36;102924.00;;;-5.33;100.00
4767;BME280;2397;53.576;9.746;2022-12-18T00:23:03;102928.88;;;-5.35;100.00
4767;BME280;2397;53.576;9.746;2022-12-18T00:25:32;102944.03;;;-5.35;100.00
4767;BME280;2397;53.576;9.746;2022-12-18T00:27:59;102941.84;;;-5.32;100.00
4767;BME280;2397;53.576;9.746;2022-12-18T00:30:25;102935.56;;;-5.35;100.00
4767;BME280;2397;53.576;9.746;2022-12-18T00:32:51;102935.56;;;-5.35;100.00
4767;BME280;2397;53.576;9.746;2022-12-18T00:35:18;102937.03;;;-5.37;100.00
4767;BME280;2397;53.576;9.746;2022-12-18T00:37:44;102934.38;;;-5.46;100.00
4767;BME280;2397;53.576;9.746;2022-12-18T00:40:11;102935.25;;;-5.45;100.00
4767;BME280;2397;53.576;9.746;2022-12-18T00:42:37;102935.44;;;-5.44;100.00
4767;BME280;2397;53.576;9.746;2022-12-18T00:45:30;102931.09;;;-5.45;100.00
4767;BME280;2397;53.576;9.746;2022-12-18T00:47:57;102929.31;;;-5.46;100.00
4767;BME280;2397;53.576;9.746;2022-12-18T00:50:24;102939.00;;;-5.42;100.00
4767;BME280;2397;53.576;9.746;2022-12-18T00:52:51;102940.81;;;-5.41;100.00
4767;BME280;2397;53.576;9.746;2022-12-18T00:55:18;102940.09;;;-5.40;100.00
4767;BME280;2397;53.576;9.746;2022-12-18T00:57:44;102941.91;;;-5.39;100.00
4767;BME280;2397;53.576;9.746;2022-12-18T01:00:13;102947.34;;;-5.43;100.00
4767;BME280;2397;53.576;9.746;2022-12-18T01:02:40;102942.50;;;-5.49;100.00
4767;BME280;2397;53.576;9.746;2022-12-18T01:05:09;102941.59;;;-5.49;100.00
4767;BME280;2397;53.576;9.746;2022-12-18T01:07:35;102943.00;;;-5.44;100.00
4767;BME280;2397;53.576;9.746;2022-12-18T01:10:02;102934.03;;;-5.49;100.00
4767;BME280;2397;53.576;9.746;2022-12-18T01:12:29;102930.22;;;-5.45;100.00
4767;BME280;2397;53.576;9.746;2022-12-18T01:14:55;102936.50;;;-5.42;100.00
4767;BME280;2397;53.576;9.746;2022-12-18T01:17:22;102924.97;;;-5.40;100.00
4767;BME280;2397;53.576;9.746;2022-12-18T01:19:48;102930.38;;;-5.44;100.00
4767;BME280;2397;53.576;9.746;2022-12-18T01:22:15;102936.16;;;-5.45;100.00
4767;BME280;2397;53.576;9.746;2022-12-18T01:24:41;102936.31;;;-5.43;100.00
4767;BME280;2397;53.576;9.746;2022-12-18T01:27:07;102921.00;;;-5.45;100.00
4767;BME280;2397;53.576;9.746;2022-12-18T01:29:34;102938.31;;;-5.48;100.00
4767;BME280;2397;53.576;9.746;2022-12-18T01:32:00;102935.97;;;-5.47;100.00
4767;BME280;2397;53.576;9.746;2022-12-18T01:34:27;102936.16;;;-5.45;100.00
4767;BME280;2397;53.576;9.746;2022-12-18T01:36:53;102933.63;;;-5.45;100.00
4767;BME280;2397;53.576;9.746;2022-12-18T01:39:19;102948.41;;;-5.48;100.00
4767;BME280;2397;53.576;9.746;2022-12-18T01:41:46;102945.34;;;-5.45;100.00
4767;BME280;2397;53.576;9.746;2022-12-18T01:50:34;102960.88;;;-5.50;100.00
4767;BME280;2397;53.576;9.746;2022-12-18T01:55:44;102961.81;;;-5.56;100.00
4767;BME280;2397;53.576;9.746;2022-12-18T01:58:15;102962.16;;;-5.53;100.00
4767;BME280;2397;53.576;9.746;2022-12-18T02:00:41;102970.63;;;-5.53;100.00
4767;BME280;2397;53.576;9.746;2022-12-18T02:03:08;102972.09;;;-5.55;100.00
4767;BME280;2397;53.576;9.746;2022-12-18T02:06:03;102958.88;;;-5.52;100.00
4767;BME280;2397;53.576;9.746;2022-12-18T02:08:40;102967.56;;;-5.50;100.00
4767;BME280;2397;53.576;9.746;2022-12-18T02:11:25;102974.03;;;-5.52;100.00
4767;BME280;2397;53.576;9.746;2022-12-18T02:14:28;102975.50;;;-5.54;100.00
4767;BME280;2397;53.576;9.746;2022-12-18T02:17:17;102983.44;;;-5.58;100.00
4767;BME280;2397;53.576;9.746;2022-12-18T02:20:13;102991.19;;;-5.57;100.00
4767;BME280;2397;53.576;9.746;2022-12-18T02:23:12;102987.75;;;-5.57;100.00
4767;BME280;2397;53.576;9.746;2022-12-18T02:28:55;102984.53;;;-5.56;100.00
4767;BME280;2397;53.576;9.746;2022-12-18T02:31:26;102981.31;;;-5.62;100.00
4767;BME280;2397;53.576;9.746;2022-12-18T02:34:00;102980.56;;;-5.69;100.00
4767;BME280;2397;53.576;9.746;2022-12-18T02:36:29;102974.81;;;-5.68;100.00
4767;BME280;2397;53.576;9.746;2022-12-18T02:38:58;102974.13;;;-5.74;100.00
4767;BME280;2397;53.576;9.746;2022-12-18T02:41:25;102980.97;;;-5.73;100.00
4767;BME280;2397;53.576;9.746;2022-12-18T02:43:58;102981.16;;;-5.71;100.00
4767;BME280;2397;53.576;9.746;2022-12-18T02:46:34;102982.59;;;-5.80;100.00
4767;BME280;2397;53.576;9.746;2022-12-18T02:49:12;102983.16;;;-5.83;100.00
4767;BME280;2397;53.576;9.746;2022-12-18T02:51:48;102978.66;;;-5.86;100.00
4767;BME280;2397;53.576;9.746;2022-12-18T02:54:24;102980.63;;;-5.83;100.00
4767;BME280;2397;53.576;9.746;2022-12-18T02:56:58;102983.88;;;-5.84;100.00
4767;BME280;2397;53.576;9.746;2022-12-18T02:59:35;102973.44;;;-5.87;100.00
4767;BME280;2397;53.576;9.746;2022-12-18T03:02:20;102975.25;;;-5.86;100.00
4767;BME280;2397;53.576;9.746;2022-12-18T03:04:55;102980.63;;;-5.83;100.00
4767;BME280;2397;53.576;9.746;2022-12-18T03:07:34;102982.75;;;-5.79;100.00
4767;BME280;2397;53.576;9.746;2022-12-18T03:10:03;102980.81;;;-5.89;100.00
4767;BME280;2397;53.576;9.746;2022-12-18T03:12:35;102985.88;;;-5.96;100.00
4767;BME280;2397;53.576;9.746;2022-12-18T03:17:33;102994.75;;;-6.07;100.00
4767;BME280;2397;53.576;9.746;2022-12-18T03:20:10;102996.19;;;-6.02;100.00
4767;BME280;2397;53.576;9.746;2022-12-18T03:22:38;103005.91;;;-5.97;100.00
4767;BME280;2397;53.576;9.746;2022-12-18T03:25:08;102993.66;;;-6.02;100.00
4767;BME280;2397;53.576;9.746;2022-12-18T03:27:38;102996.88;;;-6.03;100.00
4767;BME280;2397;53.576;9.746;2022-12-18T03:30:10;102995.63;;;-6.06;100.00
4767;BME280;2397;53.576;9.746;2022-12-18T03:35:39;102998.16;;;-6.13;100.00
4767;BME280;2397;53.576;9.746;2022-12-18T03:38:07;102993.31;;;-6.12;100.00
4767;BME280;2397;53.576;9.746;2022-12-18T03:40:59;102999.97;;;-6.12;100.00
4767;BME280;2397;53.576;9.746;2022-12-18T03:49:24;103008.44;;;-6.05;100.00
4767;BME280;2397;53.576;9.746;2022-12-18T03:52:01;102993.66;;;-6.09;100.00
4767;BME280;2397;53.576;9.746;2022-12-18T03:54:30;103005.19;;;-6.11;100.00
4767;BME280;2397;53.576;9.746;2022-12-18T03:57:19;102998.69;;;-6.09;100.00
4767;BME280;2397;53.576;9.746;2022-12-18T03:59:49;103006.78;;;-6.11;100.00
4767;BME280;2397;53.576;9.746;2022-12-18T04:02:17;102994.75;;;-6.07;100.00
4767;BME280;2397;53.576;9.746;2022-12-18T04:04:44;102989.53;;;-6.08;100.00
4767;BME280;2397;53.576;9.746;2022-12-18T04:07:13;102993.84;;;-6.07;100.00
4767;BME280;2397;53.576;9.746;2022-12-18T04:09:40;102990.78;;;-6.05;100.00
4767;BME280;2397;53.576;9.746;2022-12-18T04:12:08;102993.84;;;-6.07;100.00
4767;BME280;2397;53.576;9.746;2022-12-18T04:14:35;102997.81;;;-6.16;100.00
4767;BME280;2397;53.576;9.746;2022-12-18T04:17:02;102999.44;;;-6.17;100.00
4767;BME280;2397;53.576;9.746;2022-12-18T04:19:28;102991.34;;;-6.22;100.00
4767;BME280;2397;53.576;9.746;2022-12-18T04:21:55;102993.84;;;-6.14;100.00
4767;BME280;2397;53.576;9.746;2022-12-18T04:24:21;102991.13;;;-6.09;100.00
4767;BME280;2397;53.576;9.746;2022-12-18T04:26:47;102987.91;;;-6.08;100.00
4767;BME280;2397;53.576;9.746;2022-12-18T04:29:14;102985.91;;;-6.03;100.00
4767;BME280;2397;53.576;9.746;2022-12-18T04:31:40;102982.50;;;-6.04;100.00
4767;BME280;2397;53.576;9.746;2022-12-18T04:34:07;102980.69;;;-6.05;100.00
4767;BME280;2397;53.576;9.746;2022-12-18T04:36:33;102983.56;;;-6.02;100.00
4767;BME280;2397;53.576;9.746;2022-12-18T04:39:00;102978.69;;;-6.00;100.00
4767;BME280;2397;53.576;9.746;2022-12-18T04:41:26;102976.88;;;-6.01;100.00
4767;BME280;2397;53.576;9.746;2022-12-18T04:43:53;102984.28;;;-6.03;100.00
4767;BME280;2397;53.576;9.746;2022-12-18T04:46:19;102979.97;;;-6.04;100.00
4767;BME280;2397;53.576;9.746;2022-12-18T04:48:46;102973.84;;;-6.06;100.00
4767;BME280;2397;53.576;9.746;2022-12-18T04:51:13;102965.38;;;-6.06;100.00
4767;BME280;2397;53.576;9.746;2022-12-18T04:53:39;102961.97;;;-6.14;100.00
4767;BME280;2397;53.576;9.746;2022-12-18T04:56:09;102968.66;;;-6.22;100.00
4767;BME280;2397;53.576;9.746;2022-12-18T04:58:37;102978.91;;;-6.27;100.00
4767;BME280;2397;53.576;9.746;2022-12-18T05:01:03;102982.50;;;-6.25;100.00
4767;BME280;2397;53.576;9.746;2022-12-18T05:03:30;102990.25;;;-6.24;100.00
4767;BME280;2397;53.576;9.746;2022-12-18T05:05:57;102993.88;;;-6.22;100.00
4767;BME280;2397;53.576;9.746;2022-12-18T05:08:23;103002.13;;;-6.23;100.00
4767;BME280;2397;53.576;9.746;2022-12-18T05:10:50;103005.00;;;-6.27;100.00
4767;BME280;2397;53.576;9.746;2022-12-18T05:13:24;103015.09;;;-6.20;100.00
4767;BME280;2397;53.576;9.746;2022-12-18T05:15:54;103014.19;;;-6.13;100.00
4767;BME280;2397;53.576;9.746;2022-12-18T05:18:21;103015.28;;;-6.11;100.00
4767;BME280;2397;53.576;9.746;2022-12-18T05:20:49;103018.34;;;-6.13;100.00
4767;BME280;2397;53.576;9.746;2022-12-18T05:23:16;103016.00;;;-6.12;100.00
4767;BME280;2397;53.576;9.746;2022-12-18T05:25:42;103008.44;;;-6.19;100.00
4767;BME280;2397;53.576;9.746;2022-12-18T05:28:16;103011.69;;;-6.27;100.00
4767;BME280;2397;53.576;9.746;2022-12-18T05:30:42;103014.72;;;-6.30;100.00
4767;BME280;2397;53.576;9.746;2022-12-18T05:33:08;103022.47;;;-6.28;100.00
4767;BME280;2397;53.576;9.746;2022-12-18T05:35:35;103033.81;;;-6.25;100.00
4767;BME280;2397;53.576;9.746;2022-12-18T05:38:01;103037.97;;;-6.25;100.00
4767;BME280;2397;53.576;9.746;2022-12-18T05:40:27;103035.25;;;-6.27;100.00
4767;BME280;2397;53.576;9.746;2022-12-18T05:42:58;103031.31;;;-6.32;100.00
4767;BME280;2397;53.576;9.746;2022-12-18T05:45:24;103039.59;;;-6.33;100.00
4767;BME280;2397;53.576;9.746;2022-12-18T05:47:51;103039.22;;;-6.36;100.00
4767;BME280;2397;53.576;9.746;2022-12-18T05:50:17;103044.81;;;-6.31;100.00
4767;BME280;2397;53.576;9.746;2022-12-18T05:52:44;103045.53;;;-6.25;100.00
4767;BME280;2397;53.576;9.746;2022-12-18T05:55:10;103040.13;;;-6.21;100.00
4767;BME280;2397;53.576;9.746;2022-12-18T05:57:36;103036.50;;;-6.23;100.00
4767;BME280;2397;53.576;9.746;2022-12-18T06:00:03;103036.72;;;-6.22;100.00
4767;BME280;2397;53.576;9.746;2022-12-18T06:02:30;103031.28;;;-6.18;100.00
4767;BME280;2397;53.576;9.746;2022-12-18T06:04:56;103031.84;;;-6.20;100.00
4767;BME280;2397;53.576;9.746;2022-12-18T06:07:23;103029.88;;;-6.15;100.00
4767;BME280;2397;53.576;9.746;2022-12-18T06:09:49;103036.69;;;-6.14;100.00
4767;BME280;2397;53.576;9.746;2022-12-18T06:12:15;103040.84;;;-6.15;100.00
4767;BME280;2397;53.576;9.746;2022-12-18T06:14:42;103045.88;;;-6.15;100.00
4767;BME280;2397;53.576;9.746;2022-12-18T06:17:08;103041.56;;;-6.16;100.00
4767;BME280;2397;53.576;9.746;2022-12-18T06:19:35;103035.25;;;-6.20;100.00
4767;BME280;2397;53.576;9.746;2022-12-18T06:22:01;103035.81;;;-6.15;100.00
4767;BME280;2397;53.576;9.746;2022-12-18T06:24:27;103035.28;;;-6.12;100.00
4767;BME280;2397;53.576;9.746;2022-12-18T06:26:54;103046.25;;;-6.12;100.00
4767;BME280;2397;53.576;9.746;2022-12-18T06:29:21;103038.84;;;-6.10;100.00
4767;BME280;2397;53.576;9.746;2022-12-18T06:31:47;103038.84;;;-6.10;100.00
4767;BME280;2397;53.576;9.746;2022-12-18T06:34:14;103040.66;;;-6.09;100.00
4767;BME280;2397;53.576;9.746;2022-12-18T06:36:40;103044.44;;;-6.06;100.00
4767;BME280;2397;53.576;9.746;2022-12-18T06:39:06;103036.16;;;-6.12;100.00
4767;BME280;2397;53.576;9.746;2022-12-18T06:41:34;103043.38;;;-6.15;100.00
4767;BME280;2397;53.576;9.746;2022-12-18T06:44:00;103044.44;;;-6.13;100.00
4767;BME280;2397;53.576;9.746;2022-12-18T06:46:27;103048.22;;;-6.09;100.00
4767;BME280;2397;53.576;9.746;2022-12-18T06:48:53;103047.53;;;-6.08;100.00
4767;BME280;2397;53.576;9.746;2022-12-18T06:51:23;103044.44;;;-6.13;100.00
4767;BME280;2397;53.576;9.746;2022-12-18T06:53:50;103046.78;;;-6.14;100.00
4767;BME280;2397;53.576;9.746;2022-12-18T06:56:16;103048.22;;;-6.16;100.00
4767;BME280;2397;53.576;9.746;2022-12-18T06:58:42;103045.53;;;-6.18;100.00
4767;BME280;2397;53.576;9.746;2022-12-18T07:01:11;103056.34;;;-6.12;100.00
4767;BME280;2397;53.576;9.746;2022-12-18T07:03:39;103053.09;;;-6.11;100.00
4767;BME280;2397;53.576;9.746;2022-12-18T07:06:13;103059.22;;;-6.09;100.00
4767;BME280;2397;53.576;9.746;2022-12-18T07:08:40;103054.16;;;-6.09;100.00
4767;BME280;2397;53.576;9.746;2022-12-18T07:11:06;103056.34;;;-6.05;100.00
4767;BME280;2397;53.576;9.746;2022-12-18T07:13:32;103063.91;;;-5.97;100.00
4767;BME280;2397;53.576;9.746;2022-12-18T07:16:06;103059.22;;;-6.02;100.00
4767;BME280;2397;53.576;9.746;2022-12-18T07:18:42;103064.25;;;-6.02;100.00
4767;BME280;2397;53.576;9.746;2022-12-18T07:21:12;103072.88;;;-6.00;100.00
4767;BME280;2397;53.576;9.746;2022-12-18T07:23:39;103061.03;;;-6.01;100.00
4767;BME280;2397;53.576;9.746;2022-12-18T07:26:09;103073.47;;;-6.02;100.00
4767;BME280;2397;53.576;9.746;2022-12-18T07:28:37;103069.31;;;-6.02;100.00
4767;BME280;2397;53.576;9.746;2022-12-18T07:31:12;103063.19;;;-6.04;100.00
4767;BME280;2397;53.576;9.746;2022-12-18T07:33:39;103076.50;;;-5.97;100.00
4767;BME280;2397;53.576;9.746;2022-12-18T07:36:08;103081.56;;;-5.97;100.00
4767;BME280;2397;53.576;9.746;2022-12-18T07:38:35;103075.78;;;-5.96;100.00
4767;BME280;2397;53.576;9.746;2022-12-18T07:41:06;103079.53;;;-5.93;100.00
4767;BME280;2397;53.576;9.746;2022-12-18T07:43:34;103083.69;;;-5.93;100.00
4767;BME280;2397;53.576;9.746;2022-12-18T07:46:01;103078.47;;;-5.95;100.00
4767;BME280;2397;53.576;9.746;2022-12-18T07:48:28;103082.25;;;-5.91;100.00
4767;BME280;2397;53.576;9.746;2022-12-18T07:50:59;103085.66;;;-5.91;100.00
4767;BME280;2397;53.576;9.746;2022-12-18T07:53:26;103087.28;;;-5.91;100.00
4767;BME280;2397;53.576;9.746;2022-12-18T07:56:11;103086.22;;;-5.86;100.00
4767;BME280;2397;53.576;9.746;2022-12-18T07:58:57;103088.34;;;-5.82;100.00
4767;BME280;2397;53.576;9.746;2022-12-18T08:01:24;103080.06;;;-5.81;100.00
4767;BME280;2397;53.576;9.746;2022-12-18T08:03:51;103078.63;;;-5.79;100.00
4767;BME280;2397;53.576;9.746;2022-12-18T08:06:18;103078.97;;;-5.76;100.00
4767;BME280;2397;53.576;9.746;2022-12-18T08:08:47;103092.16;;;-5.71;100.00
4767;BME280;2397;53.576;9.746;2022-12-18T08:11:14;103084.75;;;-5.70;100.00
4767;BME280;2397;53.576;9.746;2022-12-18T08:13:40;103079.91;;;-5.75;100.00
4767;BME280;2397;53.576;9.746;2022-12-18T08:16:07;103074.31;;;-5.73;100.00
4767;BME280;2397;53.576;9.746;2022-12-18T08:18:36;103071.78;;;-5.73;100.00
4767;BME280;2397;53.576;9.746;2022-12-18T08:23:42;103071.03;;;-5.65;100.00
4767;BME280;2397;53.576;9.746;2022-12-18T08:26:10;103076.97;;;-5.57;100.00
4767;BME280;2397;53.576;9.746;2022-12-18T08:28:37;103077.50;;;-5.52;100.00
4767;BME280;2397;53.576;9.746;2022-12-18T08:31:03;103075.91;;;-5.52;100.00
4767;BME280;2397;53.576;9.746;2022-12-18T08:33:30;103074.44;;;-5.50;100.00
4767;BME280;2397;53.576;9.746;2022-12-18T08:36:01;103078.22;;;-5.39;100.00
4767;BME280;2397;53.576;9.746;2022-12-18T08:38:28;103071.19;;;-5.34;100.00
4767;BME280;2397;53.576;9.746;2022-12-18T08:41:02;103071.19;;;-5.34;100.00
4767;BME280;2397;53.576;9.746;2022-12-18T08:43:29;103064.50;;;-5.34;100.00
4767;BME280;2397;53.576;9.746;2022-12-18T08:46:14;103074.41;;;-5.28;100.00
4767;BME280;2397;53.576;9.746;2022-12-18T08:48:44;103082.50;;;-5.31;100.00
4767;BME280;2397;53.576;9.746;2022-12-18T08:51:10;103086.09;;;-5.29;100.00
4767;BME280;2397;53.576;9.746;2022-12-18T08:53:37;103084.50;;;-5.28;100.00
4767;BME280;2397;53.576;9.746;2022-12-18T08:56:04;103086.84;;;-5.22;100.00
4767;BME280;2397;53.576;9.746;2022-12-18T08:58:31;103085.38;;;-5.20;100.00
4767;BME280;2397;53.576;9.746;2022-12-18T09:01:02;103094.00;;;-5.18;100.00
4767;BME280;2397;53.576;9.746;2022-12-18T09:03:30;103091.84;;;-5.15;100.00
4767;BME280;2397;53.576;9.746;2022-12-18T09:05:57;103089.13;;;-5.09;100.00
4767;BME280;2397;53.576;9.746;2022-12-18T09:08:24;103089.28;;;-5.08;100.00
4767;BME280;2397;53.576;9.746;2022-12-18T09:10:51;103080.63;;;-5.03;100.00
4767;BME280;2397;53.576;9.746;2022-12-18T09:13:18;103070.69;;;-5.01;100.00
4767;BME280;2397;53.576;9.746;2022-12-18T09:15:47;103073.38;;;-4.92;100.00
4767;BME280;2397;53.576;9.746;2022-12-18T09:18:17;103065.44;;;-4.88;100.00
4767;BME280;2397;53.576;9.746;2022-12-18T09:20:44;103071.91;;;-4.90;100.00
4767;BME280;2397;53.576;9.746;2022-12-18T09:23:11;103081.09;;;-4.84;100.00
4767;BME280;2397;53.576;9.746;2022-12-18T09:25:38;103087.22;;;-4.82;100.00
4767;BME280;2397;53.576;9.746;2022-12-18T09:28:10;103082.50;;;-4.79;100.00
4767;BME280;2397;53.576;9.746;2022-12-18T09:30:38;103074.56;;;-4.74;100.00
4767;BME280;2397;53.576;9.746;2022-12-18T09:33:05;103080.13;;;-4.70;100.00
4767;BME280;2397;53.576;9.746;2022-12-18T09:35:32;103079.56;;;-4.67;100.00
4767;BME280;2397;53.576;9.746;2022-12-18T09:37:59;103077.38;;;-4.64;100.00
4767;BME280;2397;53.576;9.746;2022-12-18T09:40:28;103078.63;;;-4.61;100.00
4767;BME280;2397;53.576;9.746;2022-12-18T09:43:00;103063.06;;;-4.56;100.00
4767;BME280;2397;53.576;9.746;2022-12-18T09:45:41;103071.75;;;-4.54;100.00
4767;BME280;2397;53.576;9.746;2022-12-18T09:48:21;103070.41;;;-4.44;100.00
4767;BME280;2397;53.576;9.746;2022-12-18T09:50:50;103068.56;;;-4.37;100.00
4767;BME280;2397;53.576;9.746;2022-12-18T09:53:22;103069.94;;;-4.32;100.00
4767;BME280;2397;53.576;9.746;2022-12-18T09:55:51;103072.69;;;-4.31;100.00
4767;BME280;2397;53.576;9.746;2022-12-18T09:58:26;103071.16;;;-4.21;100.00
4767;BME280;2397;53.576;9.746;2022-12-18T10:00:54;103079.59;;;-4.14;100.00
4767;BME280;2397;53.576;9.746;2022-12-18T10:03:21;103079.03;;;-4.11;100.00
4767;BME280;2397;53.576;9.746;2022-12-18T10:05:56;103078.66;;;-4.07;100.00
4767;BME280;2397;53.576;9.746;2022-12-18T10:08:39;103081.09;;;-4.00;100.00
4767;BME280;2397;53.576;9.746;2022-12-18T10:14:09;103088.75;;;-3.84;100.00
4767;BME280;2397;53.576;9.746;2022-12-18T10:19:43;103088.69;;;-3.77;100.00
4767;BME280;2397;53.576;9.746;2022-12-18T10:27:26;103081.59;;;-3.72;100.00
4767;BME280;2397;53.576;9.746;2022-12-18T10:29:53;103087.16;;;-3.67;100.00
4767;BME280;2397;53.576;9.746;2022-12-18T10:32:26;103089.13;;;-3.65;100.00
4767;BME280;2397;53.576;9.746;2022-12-18T10:34:55;103090.75;;;-3.65;100.00
4767;BME280;2397;53.576;9.746;2022-12-18T10:37:27;103090.16;;;-3.63;100.00
4767;BME280;2397;53.576;9.746;2022-12-18T10:40:15;103092.31;;;-3.59;100.00
4767;BME280;2397;53.576;9.746;2022-12-18T10:43:03;103101.38;;;-3.61;100.00
4767;BME280;2397;53.576;9.746;2022-12-18T10:45:29;103098.28;;;-3.58;100.00
4767;BME280;2397;53.576;9.746;2022-12-18T10:47:56;103084.66;;;-3.51;100.00
4767;BME280;2397;53.576;9.746;2022-12-18T10:50:31;103072.88;;;-3.51;100.00
4767;BME280;2397;53.576;9.746;2022-12-18T10:53:20;103064.88;;;-3.47;100.00
4767;BME280;2397;53.576;9.746;2022-12-18T10:55:48;103060.31;;;-3.42;100.00
4767;BME280;2397;53.576;9.746;2022-12-18T10:58:30;103070.03;;;-3.38;100.00
4767;BME280;2397;53.576;9.746;2022-12-18T11:01:05;103064.41;;;-3.36;100.00
4767;BME280;2397;53.576;9.746;2022-12-18T11:03:35;103074.03;;;-3.24;100.00
4767;BME280;2397;53.576;9.746;2022-12-18T11:06:08;103073.47;;;-3.22;100.00
4767;BME280;2397;53.576;9.746;2022-12-18T11:08:35;103062.78;;;-3.19;100.00
4767;BME280;2397;53.576;9.746;2022-12-18T11:11:04;103053.59;;;-3.10;100.00
4767;BME280;2397;53.576;9.746;2022-12-18T11:13:33;103043.06;;;-3.06;100.00
4767;BME280;2397;53.576;9.746;2022-12-18T11:15:59;103040.28;;;-3.00;100.00
4767;BME280;2397;53.576;9.746;2022-12-18T11:18:29;103046.31;;;-2.91;100.00
4767;BME280;2397;53.576;9.746;2022-12-18T11:20:59;103040.13;;;-2.86;100.00
4767;BME280;2397;53.576;9.746;2022-12-18T11:23:27;103042.97;;;-2.83;100.00
4767;BME280;2397;53.576;9.746;2022-12-18T11:25:57;103036.41;;;-2.80;100.00
4767;BME280;2397;53.576;9.746;2022-12-18T11:28:29;103040.16;;;-2.77;100.00
4767;BME280;2397;53.576;9.746;2022-12-18T11:33:42;103046.13;;;-2.76;100.00
4767;BME280;2397;53.576;9.746;2022-12-18T11:36:36;103038.38;;;-2.78;100.00
4767;BME280;2397;53.576;9.746;2022-12-18T11:39:28;103030.00;;;-2.77;100.00
4767;BME280;2397;53.576;9.746;2022-12-18T11:42:01;103036.72;;;-2.77;100.00
4767;BME280;2397;53.576;9.746;2022-12-18T11:44:50;103038.13;;;-2.72;100.00
4767;BME280;2397;53.576;9.746;2022-12-18T11:47:35;103036.94;;;-2.67;100.00
4767;BME280;2397;53.576;9.746;2022-12-18T11:50:13;103031.31;;;-2.65;100.00
4767;BME280;2397;53.576;9.746;2022-12-18T11:52:42;103023.13;;;-2.62;100.00
4767;BME280;2397;53.576;9.746;2022-12-18T11:55:31;103014.91;;;-2.59;100.00
4767;BME280;2397;53.576;9.746;2022-12-18T11:58:12;103007.78;;;-2.55;100.00
4767;BME280;2397;53.576;9.746;2022-12-18T12:00:56;103003.63;;;-2.54;100.00
4767;BME280;2397;53.576;9.746;2022-12-18T12:06:46;102980.53;;;-2.49;100.00
4767;BME280;2397;53.576;9.746;2022-12-18T12:09:28;102997.69;;;-2.46;100.00
4767;BME280;2397;53.576;9.746;2022-12-18T12:14:52;102998.72;;;-2.53;100.00
4767;BME280;2397;53.576;9.746;2022-12-18T12:20:14;102989.59;;;-2.51;100.00
4767;BME280;2397;53.576;9.746;2022-12-18T12:22:47;102972.94;;;-2.49;100.00
4767;BME280;2397;53.576;9.746;2022-12-18T12:25:44;102963.34;;;-2.51;100.00
4767;BME280;2397;53.576;9.746;2022-12-18T12:28:15;102961.69;;;-2.51;100.00
4767;BME280;2397;53.576;9.746;2022-12-18T12:31:07;102952.94;;;-2.45;100.00
4767;BME280;2397;53.576;9.746;2022-12-18T12:34:03;102942.69;;;-2.38;100.00
4767;BME280;2397;53.576;9.746;2022-12-18T12:39:13;102926.44;;;-2.32;100.00
4767;BME280;2397;53.576;9.746;2022-12-18T12:41:42;102934.19;;;-2.30;100.00
4767;BME280;2397;53.576;9.746;2022-12-18T12:44:37;102921.06;;;-2.26;100.00
4767;BME280;2397;53.576;9.746;2022-12-18T12:47:20;102928.69;;;-2.26;100.00
4767;BME280;2397;53.576;9.746;2022-12-18T12:49:49;102919.56;;;-2.24;100.00
4767;BME280;2397;53.576;9.746;2022-12-18T12:52:34;102912.41;;;-2.19;100.00
4767;BME280;2397;53.576;9.746;2022-12-18T12:55:05;102913.91;;;-2.21;100.00
4767;BME280;2397;53.576;9.746;2022-12-18T12:57:45;102921.38;;;-2.23;100.00
4767;BME280;2397;53.576;9.746;2022-12-18T13:00:15;102919.16;;;-2.20;100.00
4767;BME280;2397;53.576;9.746;2022-12-18T13:02:51;102924.22;;;-2.20;100.00
4767;BME280;2397;53.576;9.746;2022-12-18T13:05:31;102926.34;;;-2.16;100.00
4767;BME280;2397;53.576;9.746;2022-12-18T13:08:09;102919.31;;;-2.18;100.00
4767;BME280;2397;53.576;9.746;2022-12-18T13:10:39;102918.72;;;-2.16;100.00
4767;BME280;2397;53.576;9.746;2022-12-18T13:13:11;102926.75;;;-2.20;100.00
4767;BME280;2397;53.576;9.746;2022-12-18T13:15:44;102913.91;;;-2.21;100.00
4767;BME280;2397;53.576;9.746;2022-12-18T13:18:20;102917.97;;;-2.23;100.00
4767;BME280;2397;53.576;9.746;2022-12-18T13:20:50;102907.94;;;-2.31;100.00
4767;BME280;2397;53.576;9.746;2022-12-18T13:23:32;102903.44;;;-2.33;100.00
4767;BME280;2397;53.576;9.746;2022-12-18T13:28:54;102904.19;;;-2.34;100.00
4767;BME280;2397;53.576;9.746;2022-12-18T13:34:16;102901.34;;;-2.37;100.00
4767;BME280;2397;53.576;9.746;2022-12-18T13:36:54;102900.91;;;-2.33;100.00
4767;BME280;2397;53.576;9.746;2022-12-18T13:39:23;102904.16;;;-2.43;100.00
4767;BME280;2397;53.576;9.746;2022-12-18T13:44:34;102902.34;;;-2.53;100.00
4767;BME280;2397;53.576;9.746;2022-12-18T13:47:26;102911.56;;;-2.53;100.00
4767;BME280;2397;53.576;9.746;2022-12-18T13:49:54;102909.47;;;-2.57;100.00
4767;BME280;2397;53.576;9.746;2022-12-18T13:52:25;102900.97;;;-2.58;100.00
4767;BME280;2397;53.576;9.746;2022-12-18T13:54:55;102892.31;;;-2.60;100.00
4767;BME280;2397;53.576;9.746;2022-12-18T13:59:58;102895.84;;;-2.67;100.00
4767;BME280;2397;53.576;9.746;2022-12-18T14:02:38;102894.66;;;-2.70;100.00
4767;BME280;2397;53.576;9.746;2022-12-18T14:05:04;102890.94;;;-2.74;100.00
4767;BME280;2397;53.576;9.746;2022-12-18T14:07:32;102894.91;;;-2.76;100.00
4767;BME280;2397;53.576;9.746;2022-12-18T14:10:13;102902.94;;;-2.80;100.00
4767;BME280;2397;53.576;9.746;2022-12-18T14:13:06;102899.06;;;-2.85;100.00
4767;BME280;2397;53.576;9.746;2022-12-18T14:15:41;102897.41;;;-2.85;100.00
4767;BME280;2397;53.576;9.746;2022-12-18T14:18:22;102879.19;;;-2.89;100.00
4767;BME280;2397;53.576;9.746;2022-12-18T14:20:54;102878.44;;;-2.97;100.00
4767;BME280;2397;53.576;9.746;2022-12-18T14:23:37;102871.50;;;-3.07;100.00